sensor_id;sensor_type;location;lat;lon;timestamp;pressure;altitude;pressure_sealevel;temperature;humidity
9893;BME280;4985;49.092;8.542;2023-06-14T00:02:21;98830.16;;;24.84;37.25
9893;BME280;4985;49.092;8.542;2023-06-14T00:04:48;98832.84;;;24.84;37.26
9893;BME280;4985;49.092;8.542;2023-06-14T00:07:17;98832.84;;;24.84;37.27
9893;BME280;4985;49.092;8.542;2023-06-14T00:09:44;98829.34;;;24.84;37.28
9893;BME280;4985;49.092;8.542;2023-06-14T00:12:10;98833.94;;;24.83;37.29
9893;BME280;4985;49.092;8.542;2023-06-14T00:14:37;98829.63;;;24.82;37.28
9893;BME280;4985;49.092;8.542;2023-06-14T00:17:04;98834.75;;;24.84;37.30
9893;BME280;4985;49.092;8.542;2023-06-14T00:19:33;98828.81;;;24.82;37.31
9893;BME280;4985;49.092;8.542;2023-06-14T00:22:01;98829.63;;;24.82;37.32
9893;BME280;4985;49.092;8.542;2023-06-14T00:24:28;98835.81;;;24.83;37.32
9893;BME280;4985;49.092;8.542;2023-06-14T00:26:55;98828.81;;;24.82;37.33
9893;BME280;4985;49.092;8.542;2023-06-14T00:29:22;98826.13;;;24.82;37.33
9893;BME280;4985;49.092;8.542;2023-06-14T00:31:49;98824.25;;;24.82;37.34
9893;BME280;4985;49.092;8.542;2023-06-14T00:34:15;98830.44;;;24.83;37.34
9893;BME280;4985;49.092;8.542;2023-06-14T00:36:43;98829.63;;;24.82;37.35
9893;BME280;4985;49.092;8.542;2023-06-14T00:39:10;98828.00;;;24.81;37.34
9893;BME280;4985;49.092;8.542;2023-06-14T00:41:37;98822.63;;;24.81;37.36
9893;BME280;4985;49.092;8.542;2023-06-14T00:44:04;98823.69;;;24.80;37.35
9893;BME280;4985;49.092;8.542;2023-06-14T00:46:31;98825.31;;;24.81;37.37
9893;BME280;4985;49.092;8.542;2023-06-14T00:48:59;98819.94;;;24.81;37.38
9893;BME280;4985;49.092;8.542;2023-06-14T00:51:27;98820.97;;;24.80;37.37
9893;BME280;4985;49.092;8.542;2023-06-14T00:53:55;98831.75;;;24.80;37.38
9893;BME280;4985;49.092;8.542;2023-06-14T00:56:22;98827.44;;;24.79;37.41
9893;BME280;4985;49.092;8.542;2023-06-14T00:58:48;98827.44;;;24.79;37.41
9893;BME280;4985;49.092;8.542;2023-06-14T01:01:16;98819.37;;;24.79;37.42
9893;BME280;4985;49.092;8.542;2023-06-14T01:03:42;98830.13;;;24.79;37.43
9893;BME280;4985;49.092;8.542;2023-06-14T01:06:17;98824.75;;;24.79;37.43
9893;BME280;4985;49.092;8.542;2023-06-14T01:09:00;98823.12;;;24.78;37.43
9893;BME280;4985;49.092;8.542;2023-06-14T01:11:33;98830.13;;;24.79;37.43
9893;BME280;4985;49.092;8.542;2023-06-14T01:14:03;98826.63;;;24.79;37.44
9893;BME280;4985;49.092;8.542;2023-06-14T01:16:31;98833.09;;;24.78;37.46
9893;BME280;4985;49.092;8.542;2023-06-14T01:18:58;98832.28;;;24.77;37.47
9893;BME280;4985;49.092;8.542;2023-06-14T01:21:25;98828.53;;;24.78;37.46
9893;BME280;4985;49.092;8.542;2023-06-14T01:23:55;98832.28;;;24.77;37.48
9893;BME280;4985;49.092;8.542;2023-06-14T01:26:21;98830.69;;;24.76;37.49
9893;BME280;4985;49.092;8.542;2023-06-14T01:28:49;98830.69;;;24.76;37.49
9893;BME280;4985;49.092;8.542;2023-06-14T01:31:19;98834.44;;;24.75;37.49
9893;BME280;4985;49.092;8.542;2023-06-14T01:33:47;98832.56;;;24.76;37.51
9893;BME280;4985;49.092;8.542;2023-06-14T01:36:15;98831.75;;;24.75;37.51
9893;BME280;4985;49.092;8.542;2023-06-14T01:38:44;98839.81;;;24.75;37.52
9893;BME280;4985;49.092;8.542;2023-06-14T01:41:13;98836.31;;;24.75;37.54
9893;BME280;4985;49.092;8.542;2023-06-14T01:43:41;98838.22;;;24.74;37.55
9893;BME280;4985;49.092;8.542;2023-06-14T01:46:09;98837.41;;;24.74;37.56
9893;BME280;4985;49.092;8.542;2023-06-14T01:48:37;98842.78;;;24.74;37.57
9893;BME280;4985;49.092;8.542;2023-06-14T01:51:03;98836.59;;;24.73;37.57
9893;BME280;4985;49.092;8.542;2023-06-14T01:53:30;98834.19;;;24.72;37.58
9893;BME280;4985;49.092;8.542;2023-06-14T01:55:56;98840.38;;;24.72;37.59
9893;BME280;4985;49.092;8.542;2023-06-14T01:58:25;98840.38;;;24.72;37.61
9893;BME280;4985;49.092;8.542;2023-06-14T02:00:52;98837.38;;;24.68;36.26
9893;BME280;4985;49.092;8.542;2023-06-14T02:03:20;98842.19;;;24.56;34.43
9893;BME280;4985;49.092;8.542;2023-06-14T02:05:48;98841.09;;;24.42;34.01
9893;BME280;4985;49.092;8.542;2023-06-14T02:08:15;98841.03;;;24.32;33.72
9893;BME280;4985;49.092;8.542;2023-06-14T02:10:41;98839.91;;;24.23;33.38
9893;BME280;4985;49.092;8.542;2023-06-14T02:13:08;98847.41;;;24.16;33.09
9893;BME280;4985;49.092;8.542;2023-06-14T02:15:36;98842.53;;;24.07;32.94
9893;BME280;4985;49.092;8.542;2023-06-14T02:18:03;98845.97;;;23.98;33.19
9893;BME280;4985;49.092;8.542;2023-06-14T02:20:30;98844.84;;;23.89;32.96
9893;BME280;4985;49.092;8.542;2023-06-14T02:22:57;98840.78;;;23.81;32.77
9893;BME280;4985;49.092;8.542;2023-06-14T02:25:23;98846.38;;;23.74;32.74
9893;BME280;4985;49.092;8.542;2023-06-14T02:27:52;98844.69;;;23.63;32.86
9893;BME280;4985;49.092;8.542;2023-06-14T02:30:19;98848.88;;;23.49;33.18
9893;BME280;4985;49.092;8.542;2023-06-14T02:32:47;98851.75;;;23.42;33.25
9893;BME280;4985;49.092;8.542;2023-06-14T02:35:16;98856.81;;;23.34;33.28
9893;BME280;4985;49.092;8.542;2023-06-14T02:37:42;98857.03;;;23.27;33.43
9893;BME280;4985;49.092;8.542;2023-06-14T02:40:10;98857.19;;;23.15;33.60
9893;BME280;4985;49.092;8.542;2023-06-14T02:42:36;98858.25;;;23.14;33.58
9893;BME280;4985;49.092;8.542;2023-06-14T02:45:03;98853.88;;;23.03;33.65
9893;BME280;4985;49.092;8.542;2023-06-14T02:47:30;98852.69;;;22.94;33.89
9893;BME280;4985;49.092;8.542;2023-06-14T02:49:58;98858.25;;;22.87;33.95
9893;BME280;4985;49.092;8.542;2023-06-14T02:52:24;98854.94;;;22.80;33.99
9893;BME280;4985;49.092;8.542;2023-06-14T02:54:51;98854.59;;;22.72;34.13
9893;BME280;4985;49.092;8.542;2023-06-14T02:57:19;98853.16;;;22.64;34.24
9893;BME280;4985;49.092;8.542;2023-06-14T02:59:46;98855.75;;;22.54;34.48
9893;BME280;4985;49.092;8.542;2023-06-14T03:02:12;98851.63;;;22.46;34.53
9893;BME280;4985;49.092;8.542;2023-06-14T03:04:39;98859.56;;;22.36;34.63
9893;BME280;4985;49.092;8.542;2023-06-14T03:07:08;98848.69;;;22.26;34.73
9893;BME280;4985;49.092;8.542;2023-06-14T03:09:35;98851.50;;;22.14;34.82
9893;BME280;4985;49.092;8.542;2023-06-14T03:12:03;98853.75;;;22.05;34.92
9893;BME280;4985;49.092;8.542;2023-06-14T03:14:31;98853.88;;;21.94;35.05
9893;BME280;4985;49.092;8.542;2023-06-14T03:16:58;98845.44;;;21.85;35.20
9893;BME280;4985;49.092;8.542;2023-06-14T03:19:25;98864.63;;;21.77;35.44
9893;BME280;4985;49.092;8.542;2023-06-14T03:21:52;98856.50;;;21.72;35.44
9893;BME280;4985;49.092;8.542;2023-06-14T03:24:23;98859.13;;;21.67;35.45
9893;BME280;4985;49.092;8.542;2023-06-14T03:26:50;98858.56;;;21.65;35.62
9893;BME280;4985;49.092;8.542;2023-06-14T03:29:16;98853.13;;;21.60;35.58
9893;BME280;4985;49.092;8.542;2023-06-14T03:31:56;98858.88;;;21.51;35.58
9893;BME280;4985;49.092;8.542;2023-06-14T03:34:24;98852.81;;;21.39;35.65
9893;BME280;4985;49.092;8.542;2023-06-14T03:36:50;98864.00;;;21.36;35.75
9893;BME280;4985;49.092;8.542;2023-06-14T03:39:17;98858.00;;;21.29;35.85
9893;BME280;4985;49.092;8.542;2023-06-14T03:41:45;98862.69;;;21.22;35.89
9893;BME280;4985;49.092;8.542;2023-06-14T03:44:14;98867.38;;;21.15;36.03
9893;BME280;4985;49.092;8.542;2023-06-14T03:46:40;98866.22;;;21.11;36.15
9893;BME280;4985;49.092;8.542;2023-06-14T03:49:07;98868.81;;;21.06;36.19
9893;BME280;4985;49.092;8.542;2023-06-14T03:51:33;98873.50;;;20.99;36.32
9893;BME280;4985;49.092;8.542;2023-06-14T03:54:00;98883.06;;;20.94;36.49
9893;BME280;4985;49.092;8.542;2023-06-14T03:56:27;98882.50;;;20.92;36.54
9893;BME280;4985;49.092;8.542;2023-06-14T03:58:55;98889.13;;;20.90;36.62
9893;BME280;4985;49.092;8.542;2023-06-14T04:01:21;98895.53;;;20.89;36.71
9893;BME280;4985;49.092;8.542;2023-06-14T04:03:55;98894.72;;;20.88;36.89
9893;BME280;4985;49.092;8.542;2023-06-14T04:06:22;98895.22;;;20.85;37.10
9893;BME280;4985;49.092;8.542;2023-06-14T04:08:50;98899.16;;;20.83;37.23
9893;BME280;4985;49.092;8.542;2023-06-14T04:11:17;98903.94;;;20.81;37.36
9893;BME280;4985;49.092;8.542;2023-06-14T04:13:44;98905.25;;;20.78;37.45
9893;BME280;4985;49.092;8.542;2023-06-14T04:16:13;98915.94;;;20.78;37.45
9893;BME280;4985;49.092;8.542;2023-06-14T04:18:40;98918.84;;;20.77;37.46
9893;BME280;4985;49.092;8.542;2023-06-14T04:21:06;98916.41;;;20.75;37.51
9893;BME280;4985;49.092;8.542;2023-06-14T04:23:33;98919.56;;;20.72;37.65
9893;BME280;4985;49.092;8.542;2023-06-14T04:26:00;98925.94;;;20.71;37.69
9893;BME280;4985;49.092;8.542;2023-06-14T04:28:28;98922.72;;;20.69;37.75
9893;BME280;4985;49.092;8.542;2023-06-14T04:30:55;98927.47;;;20.67;37.80
9893;BME280;4985;49.092;8.542;2023-06-14T04:33:23;98925.63;;;20.68;37.85
9893;BME280;4985;49.092;8.542;2023-06-14T04:35:51;98930.16;;;20.67;37.85
9893;BME280;4985;49.092;8.542;2023-06-14T04:38:19;98931.22;;;20.66;37.83
9893;BME280;4985;49.092;8.542;2023-06-14T04:40:50;98931.22;;;20.66;37.90
9893;BME280;4985;49.092;8.542;2023-06-14T04:43:18;98936.00;;;20.64;37.97
9893;BME280;4985;49.092;8.542;2023-06-14T04:45:51;98940.53;;;20.63;37.98
9893;BME280;4985;49.092;8.542;2023-06-14T04:48:20;98941.34;;;20.64;37.98
9893;BME280;4985;49.092;8.542;2023-06-14T04:50:49;98947.75;;;20.63;37.99
9893;BME280;4985;49.092;8.542;2023-06-14T04:53:18;98949.37;;;20.64;38.04
9893;BME280;4985;49.092;8.542;2023-06-14T04:55:46;98951.22;;;20.63;38.15
9893;BME280;4985;49.092;8.542;2023-06-14T04:58:13;98953.09;;;20.63;38.37
9893;BME280;4985;49.092;8.542;2023-06-14T05:00:40;98958.88;;;20.60;38.32
9893;BME280;4985;49.092;8.542;2023-06-14T05:03:07;98961.22;;;20.56;38.51
9893;BME280;4985;49.092;8.542;2023-06-14T05:05:34;98961.72;;;20.53;38.57
9893;BME280;4985;49.092;8.542;2023-06-14T05:08:02;98966.69;;;20.50;38.60
9893;BME280;4985;49.092;8.542;2023-06-14T05:10:28;98973.34;;;20.47;38.55
9893;BME280;4985;49.092;8.542;2023-06-14T05:12:55;98971.37;;;20.43;38.77
9893;BME280;4985;49.092;8.542;2023-06-14T05:15:21;98967.53;;;20.39;38.59
9893;BME280;4985;49.092;8.542;2023-06-14T05:17:50;98976.00;;;20.35;38.74
9893;BME280;4985;49.092;8.542;2023-06-14T05:20:20;98973.22;;;20.30;38.88
9893;BME280;4985;49.092;8.542;2023-06-14T05:22:48;98973.56;;;20.34;38.85
9893;BME280;4985;49.092;8.542;2023-06-14T05:25:16;98971.94;;;20.33;38.88
9893;BME280;4985;49.092;8.542;2023-06-14T05:27:43;98969.50;;;20.31;38.83
9893;BME280;4985;49.092;8.542;2023-06-14T05:30:11;98974.84;;;20.31;38.82
9893;BME280;4985;49.092;8.542;2023-06-14T05:32:37;98978.31;;;20.32;38.81
9893;BME280;4985;49.092;8.542;2023-06-14T05:35:05;98984.00;;;20.35;38.87
9893;BME280;4985;49.092;8.542;2023-06-14T05:37:32;98982.94;;;20.36;38.87
9893;BME280;4985;49.092;8.542;2023-06-14T05:39:58;98984.94;;;20.41;38.84
9893;BME280;4985;49.092;8.542;2023-06-14T05:42:26;98996.00;;;20.45;38.81
9893;BME280;4985;49.092;8.542;2023-06-14T05:44:53;98991.00;;;20.48;38.78
9893;BME280;4985;49.092;8.542;2023-06-14T05:47:20;98997.75;;;20.51;38.76
9893;BME280;4985;49.092;8.542;2023-06-14T05:49:47;98996.22;;;20.55;38.74
9893;BME280;4985;49.092;8.542;2023-06-14T05:52:14;98994.94;;;20.57;38.70
9893;BME280;4985;49.092;8.542;2023-06-14T05:54:40;98999.00;;;20.60;38.68
9893;BME280;4985;49.092;8.542;2023-06-14T05:57:07;98980.75;;;20.57;38.63
9893;BME280;4985;49.092;8.542;2023-06-14T05:59:35;98992.97;;;20.64;38.60
9893;BME280;4985;49.092;8.542;2023-06-14T06:02:01;99000.50;;;20.68;38.60
9893;BME280;4985;49.092;8.542;2023-06-14T06:04:28;99000.28;;;20.69;38.57
9893;BME280;4985;49.092;8.542;2023-06-14T06:06:55;98998.78;;;20.73;38.53
9893;BME280;4985;49.092;8.542;2023-06-14T06:09:21;99003.06;;;20.74;38.51
9893;BME280;4985;49.092;8.542;2023-06-14T06:11:48;99005.25;;;20.77;38.50
9893;BME280;4985;49.092;8.542;2023-06-14T06:14:14;98997.00;;;20.79;38.47
9893;BME280;4985;49.092;8.542;2023-06-14T06:16:42;99002.69;;;20.82;38.43
9893;BME280;4985;49.092;8.542;2023-06-14T06:19:09;99004.31;;;20.83;38.43
9893;BME280;4985;49.092;8.542;2023-06-14T06:21:35;99006.53;;;20.86;38.43
9893;BME280;4985;49.092;8.542;2023-06-14T06:24:02;99017.81;;;20.88;38.43
9893;BME280;4985;49.092;8.542;2023-06-14T06:26:30;99012.22;;;20.90;38.39
9893;BME280;4985;49.092;8.542;2023-06-14T06:28:57;99015.22;;;20.93;38.38
9893;BME280;4985;49.092;8.542;2023-06-14T06:31:24;99015.22;;;20.93;38.37
9893;BME280;4985;49.092;8.542;2023-06-14T06:33:54;99014.75;;;20.97;38.33
9893;BME280;4985;49.092;8.542;2023-06-14T06:36:20;99017.19;;;20.98;38.35
9893;BME280;4985;49.092;8.542;2023-06-14T06:38:47;99019.63;;;21.00;38.35
9893;BME280;4985;49.092;8.542;2023-06-14T06:41:14;99015.56;;;20.97;38.32
9893;BME280;4985;49.092;8.542;2023-06-14T06:43:41;99021.59;;;21.04;38.32
9893;BME280;4985;49.092;8.542;2023-06-14T06:46:07;99018.66;;;21.06;38.30
9893;BME280;4985;49.092;8.542;2023-06-14T06:48:34;99026.47;;;21.07;38.28
9893;BME280;4985;49.092;8.542;2023-06-14T06:51:02;99027.06;;;21.09;38.28
9893;BME280;4985;49.092;8.542;2023-06-14T06:53:28;99032.97;;;21.11;38.28
9893;BME280;4985;49.092;8.542;2023-06-14T06:55:55;99024.13;;;21.11;38.25
9893;BME280;4985;49.092;8.542;2023-06-14T06:58:22;99032.50;;;21.14;38.26
9893;BME280;4985;49.092;8.542;2023-06-14T07:00:48;99035.75;;;21.16;38.22
9893;BME280;4985;49.092;8.542;2023-06-14T07:03:15;99033.87;;;21.17;38.22
9893;BME280;4985;49.092;8.542;2023-06-14T07:05:42;99041.47;;;21.20;38.24
9893;BME280;4985;49.092;8.542;2023-06-14T07:08:09;99046.81;;;21.20;38.21
9893;BME280;4985;49.092;8.542;2023-06-14T07:10:36;99048.44;;;21.21;38.20
9893;BME280;4985;49.092;8.542;2023-06-14T07:13:03;99049.00;;;21.23;38.20
9893;BME280;4985;49.092;8.542;2023-06-14T07:15:30;99052.50;;;21.23;38.21
9893;BME280;4985;49.092;8.542;2023-06-14T07:17:56;99057.38;;;21.27;38.20
9893;BME280;4985;49.092;8.542;2023-06-14T07:20:24;99054.72;;;21.27;38.19
9893;BME280;4985;49.092;8.542;2023-06-14T07:22:51;99056.09;;;21.29;38.19
9893;BME280;4985;49.092;8.542;2023-06-14T07:25:19;99056.09;;;21.29;38.21
9893;BME280;4985;49.092;8.542;2023-06-14T07:27:47;99059.38;;;21.31;38.20
9893;BME280;4985;49.092;8.542;2023-06-14T07:30:14;99063.44;;;21.34;38.19
9893;BME280;4985;49.092;8.542;2023-06-14T07:32:40;99064.00;;;21.36;38.18
9893;BME280;4985;49.092;8.542;2023-06-14T07:35:08;99068.31;;;21.37;38.17
9893;BME280;4985;49.092;8.542;2023-06-14T07:37:34;99065.38;;;21.38;38.17
9893;BME280;4985;49.092;8.542;2023-06-14T07:40:01;99066.19;;;21.39;38.16
9893;BME280;4985;49.092;8.542;2023-06-14T07:42:33;99068.63;;;21.40;38.17
9893;BME280;4985;49.092;8.542;2023-06-14T07:45:00;99072.72;;;21.43;38.14
9893;BME280;4985;49.092;8.542;2023-06-14T07:47:26;99075.16;;;21.44;38.14
9893;BME280;4985;49.092;8.542;2023-06-14T07:49:53;99073.03;;;21.46;38.11
9893;BME280;4985;49.092;8.542;2023-06-14T07:52:19;99072.81;;;21.48;38.12
9893;BME280;4985;49.092;8.542;2023-06-14T07:54:46;99076.28;;;21.48;38.11
9893;BME280;4985;49.092;8.542;2023-06-14T07:57:13;99075.22;;;21.49;38.13
9893;BME280;4985;49.092;8.542;2023-06-14T07:59:41;99066.97;;;21.51;38.12
9893;BME280;4985;49.092;8.542;2023-06-14T08:02:07;99071.28;;;21.52;38.11
9893;BME280;4985;49.092;8.542;2023-06-14T08:04:34;99068.38;;;21.54;38.07
9893;BME280;4985;49.092;8.542;2023-06-14T08:07:01;99061.97;;;21.55;38.08
9893;BME280;4985;49.092;8.542;2023-06-14T08:09:28;99063.09;;;21.59;38.06
9893;BME280;4985;49.092;8.542;2023-06-14T08:11:55;99057.72;;;21.59;38.06
9893;BME280;4985;49.092;8.542;2023-06-14T08:14:22;99066.59;;;21.59;38.07
9893;BME280;4985;49.092;8.542;2023-06-14T08:16:50;99067.41;;;21.60;38.08
9893;BME280;4985;49.092;8.542;2023-06-14T08:19:16;99071.69;;;21.61;38.09
9893;BME280;4985;49.092;8.542;2023-06-14T08:21:43;99071.44;;;21.62;38.07
9893;BME280;4985;49.092;8.542;2023-06-14T08:24:11;99073.31;;;21.62;38.07
9893;BME280;4985;49.092;8.542;2023-06-14T08:26:38;99074.94;;;21.63;38.06
9893;BME280;4985;49.092;8.542;2023-06-14T08:29:05;99068.56;;;21.64;38.06
9893;BME280;4985;49.092;8.542;2023-06-14T08:31:32;99077.16;;;21.66;38.06
9893;BME280;4985;49.092;8.542;2023-06-14T08:34:00;99069.13;;;21.66;38.05
9893;BME280;4985;49.092;8.542;2023-06-14T08:36:26;99075.88;;;21.68;38.04
9893;BME280;4985;49.092;8.542;2023-06-14T08:38:53;99078.28;;;21.70;38.04
9893;BME280;4985;49.092;8.542;2023-06-14T08:41:22;99078.87;;;21.72;38.02
9893;BME280;4985;49.092;8.542;2023-06-14T08:43:49;99070.00;;;21.71;38.04
9893;BME280;4985;49.092;8.542;2023-06-14T08:46:17;99086.44;;;21.75;37.99
9893;BME280;4985;49.092;8.542;2023-06-14T08:48:47;99084.34;;;21.77;37.97
9893;BME280;4985;49.092;8.542;2023-06-14T08:51:18;99084.34;;;21.77;37.96
9893;BME280;4985;49.092;8.542;2023-06-14T08:53:52;99083.03;;;21.79;37.97
9893;BME280;4985;49.092;8.542;2023-06-14T08:56:23;99083.84;;;21.80;37.96
9893;BME280;4985;49.092;8.542;2023-06-14T08:58:51;99083.84;;;21.80;37.97
9893;BME280;4985;49.092;8.542;2023-06-14T09:01:18;99085.47;;;21.81;37.99
9893;BME280;4985;49.092;8.542;2023-06-14T09:03:48;99083.84;;;21.80;37.99
9893;BME280;4985;49.092;8.542;2023-06-14T09:06:16;99084.41;;;21.82;37.98
9893;BME280;4985;49.092;8.542;2023-06-14T09:08:44;99079.03;;;21.82;38.00
9893;BME280;4985;49.092;8.542;2023-06-14T09:11:11;99078.81;;;21.84;37.99
9893;BME280;4985;49.092;8.542;2023-06-14T09:13:40;99076.94;;;21.84;37.99
9893;BME280;4985;49.092;8.542;2023-06-14T09:16:07;99078.56;;;21.85;37.99
9893;BME280;4985;49.092;8.542;2023-06-14T09:18:37;99083.72;;;21.87;37.96
9893;BME280;4985;49.092;8.542;2023-06-14T09:21:05;99075.41;;;21.88;37.96
9893;BME280;4985;49.092;8.542;2023-06-14T09:23:36;99075.41;;;21.88;37.94
9893;BME280;4985;49.092;8.542;2023-06-14T09:26:06;99074.34;;;21.89;37.95
9893;BME280;4985;49.092;8.542;2023-06-14T09:28:33;99076.56;;;21.92;37.93
9893;BME280;4985;49.092;8.542;2023-06-14T09:31:00;99080.84;;;21.93;37.90
9893;BME280;4985;49.092;8.542;2023-06-14T09:33:26;99088.66;;;21.95;37.90
9893;BME280;4985;49.092;8.542;2023-06-14T09:35:54;99081.41;;;21.95;37.88
9893;BME280;4985;49.092;8.542;2023-06-14T09:38:21;99080.97;;;21.98;37.89
9893;BME280;4985;49.092;8.542;2023-06-14T09:40:49;99084.19;;;22.00;37.89
9893;BME280;4985;49.092;8.542;2023-06-14T09:43:17;99091.19;;;22.01;37.86
9893;BME280;4985;49.092;8.542;2023-06-14T09:45:44;99089.06;;;22.03;37.80
9893;BME280;4985;49.092;8.542;2023-06-14T09:48:14;99089.88;;;22.04;37.80
9893;BME280;4985;49.092;8.542;2023-06-14T09:50:45;99086.94;;;22.05;37.78
9893;BME280;4985;49.092;8.542;2023-06-14T09:53:12;99093.97;;;22.06;37.72
9893;BME280;4985;49.092;8.542;2023-06-14T09:55:41;99097.47;;;22.07;37.73
9893;BME280;4985;49.092;8.542;2023-06-14T09:58:10;99092.91;;;22.07;37.73
9893;BME280;4985;49.092;8.542;2023-06-14T10:00:38;99088.16;;;22.10;37.72
9893;BME280;4985;49.092;8.542;2023-06-14T10:03:12;99089.78;;;22.11;37.69
9893;BME280;4985;49.092;8.542;2023-06-14T10:05:42;99088.16;;;22.10;37.68
9893;BME280;4985;49.092;8.542;2023-06-14T10:08:12;99094.31;;;22.10;37.69
9893;BME280;4985;49.092;8.542;2023-06-14T10:10:41;99086.94;;;22.05;37.63
9893;BME280;4985;49.092;8.542;2023-06-14T10:13:10;99081.16;;;22.08;37.67
9893;BME280;4985;49.092;8.542;2023-06-14T10:15:42;99088.16;;;22.10;37.68
9893;BME280;4985;49.092;8.542;2023-06-14T10:18:17;99092.44;;;22.11;37.70
9893;BME280;4985;49.092;8.542;2023-06-14T10:20:52;99079.03;;;22.11;37.67
9893;BME280;4985;49.092;8.542;2023-06-14T10:23:23;99086.03;;;22.12;37.60
9893;BME280;4985;49.092;8.542;2023-06-14T10:25:54;99085.22;;;22.11;37.62
9893;BME280;4985;49.092;8.542;2023-06-14T10:28:23;99086.03;;;22.12;37.64
9893;BME280;4985;49.092;8.542;2023-06-14T10:31:14;99086.03;;;22.12;37.63
9893;BME280;4985;49.092;8.542;2023-06-14T10:33:48;99081.22;;;22.14;37.58
9893;BME280;4985;49.092;8.542;2023-06-14T10:36:26;99073.19;;;22.14;37.55
9893;BME280;4985;49.092;8.542;2023-06-14T10:38:58;99089.03;;;22.15;37.60
9893;BME280;4985;49.092;8.542;2023-06-14T10:41:26;99080.75;;;22.17;37.60
9893;BME280;4985;49.092;8.542;2023-06-14T10:44:10;99085.03;;;22.18;37.58
9893;BME280;4985;49.092;8.542;2023-06-14T10:46:37;99077.56;;;22.20;37.48
9893;BME280;4985;49.092;8.542;2023-06-14T10:49:04;99078.63;;;22.19;37.51
9893;BME280;4985;49.092;8.542;2023-06-14T10:51:38;99075.94;;;22.19;37.50
9893;BME280;4985;49.092;8.542;2023-06-14T10:54:11;99082.12;;;22.19;37.51
9893;BME280;4985;49.092;8.542;2023-06-14T10:56:45;99074.06;;;22.19;37.50
9893;BME280;4985;49.092;8.542;2023-06-14T10:59:14;99078.16;;;22.22;37.54
9893;BME280;4985;49.092;8.542;2023-06-14T11:01:45;99073.34;;;22.24;37.46
9893;BME280;4985;49.092;8.542;2023-06-14T11:04:20;99071.72;;;22.23;37.54
9893;BME280;4985;49.092;8.542;2023-06-14T11:06:48;99070.69;;;22.24;37.50
9893;BME280;4985;49.092;8.542;2023-06-14T11:12:10;99077.91;;;22.23;37.47
9893;BME280;4985;49.092;8.542;2023-06-14T11:14:38;99089.44;;;22.24;37.51
9893;BME280;4985;49.092;8.542;2023-06-14T11:17:05;99087.31;;;22.26;37.51
9893;BME280;4985;49.092;8.542;2023-06-14T11:19:32;99071.25;;;22.26;37.44
9893;BME280;4985;49.092;8.542;2023-06-14T11:21:59;99071.81;;;22.28;37.43
9893;BME280;4985;49.092;8.542;2023-06-14T11:24:25;99067.50;;;22.27;37.44
9893;BME280;4985;49.092;8.542;2023-06-14T11:26:52;99063.19;;;22.26;37.47
9893;BME280;4985;49.092;8.542;2023-06-14T11:29:20;99071.25;;;22.26;37.47
9893;BME280;4985;49.092;8.542;2023-06-14T11:31:48;99063.19;;;22.26;37.52
9893;BME280;4985;49.092;8.542;2023-06-14T11:34:14;99064.81;;;22.27;37.54
9893;BME280;4985;49.092;8.542;2023-06-14T11:36:41;99065.63;;;22.27;37.58
9893;BME280;4985;49.092;8.542;2023-06-14T11:39:08;99076.09;;;22.29;37.56
9893;BME280;4985;49.092;8.542;2023-06-14T11:41:37;99067.00;;;22.30;37.48
9893;BME280;4985;49.092;8.542;2023-06-14T11:44:04;99068.63;;;22.31;37.47
9893;BME280;4985;49.092;8.542;2023-06-14T11:46:31;99063.25;;;22.31;37.40
9893;BME280;4985;49.092;8.542;2023-06-14T11:48:59;99077.50;;;22.31;37.46
9893;BME280;4985;49.092;8.542;2023-06-14T11:51:28;99072.97;;;22.32;37.37
9893;BME280;4985;49.092;8.542;2023-06-14T11:53:55;99064.91;;;22.32;37.22
9893;BME280;4985;49.092;8.542;2023-06-14T11:56:22;99065.72;;;22.32;37.24
9893;BME280;4985;49.092;8.542;2023-06-14T11:58:49;99062.78;;;22.34;37.22
9893;BME280;4985;49.092;8.542;2023-06-14T12:01:16;99062.78;;;22.34;37.28
9893;BME280;4985;49.092;8.542;2023-06-14T12:03:47;99063.59;;;22.34;37.38
9893;BME280;4985;49.092;8.542;2023-06-14T12:06:16;99056.13;;;22.36;37.25
9893;BME280;4985;49.092;8.542;2023-06-14T12:08:44;99055.31;;;22.36;37.37
9893;BME280;4985;49.092;8.542;2023-06-14T12:11:13;99063.91;;;22.38;37.24
9893;BME280;4985;49.092;8.542;2023-06-14T12:13:41;99065.28;;;22.41;36.91
9893;BME280;4985;49.092;8.542;2023-06-14T12:16:08;99068.78;;;22.41;36.76
9893;BME280;4985;49.092;8.542;2023-06-14T12:18:35;99060.75;;;22.41;36.81
9893;BME280;4985;49.092;8.542;2023-06-14T12:21:04;99063.41;;;22.41;36.91
9893;BME280;4985;49.092;8.542;2023-06-14T12:23:54;99054.56;;;22.41;37.15
9893;BME280;4985;49.092;8.542;2023-06-14T12:26:21;99065.28;;;22.41;37.13
9893;BME280;4985;49.092;8.542;2023-06-14T12:28:47;99068.78;;;22.41;37.17
9893;BME280;4985;49.092;8.542;2023-06-14T12:31:15;99055.37;;;22.41;37.13
9893;BME280;4985;49.092;8.542;2023-06-14T12:33:42;99056.44;;;22.40;37.07
9893;BME280;4985;49.092;8.542;2023-06-14T12:36:10;99052.47;;;22.43;37.01
9893;BME280;4985;49.092;8.542;2023-06-14T12:38:37;99057.59;;;22.44;36.83
9893;BME280;4985;49.092;8.542;2023-06-14T12:41:05;99051.41;;;22.44;36.78
9893;BME280;4985;49.092;8.542;2023-06-14T12:43:33;99053.03;;;22.45;36.60
9893;BME280;4985;49.092;8.542;2023-06-14T12:45:59;99052.78;;;22.46;36.56
9893;BME280;4985;49.092;8.542;2023-06-14T12:48:26;99047.16;;;22.48;36.57
9893;BME280;4985;49.092;8.542;2023-06-14T12:50:55;99051.47;;;22.49;36.62
9893;BME280;4985;49.092;8.542;2023-06-14T12:53:21;99052.28;;;22.49;36.58
9893;BME280;4985;49.092;8.542;2023-06-14T12:55:48;99056.03;;;22.48;36.54
9893;BME280;4985;49.092;8.542;2023-06-14T12:58:16;99056.84;;;22.49;36.47
9893;BME280;4985;49.092;8.542;2023-06-14T13:00:45;99050.66;;;22.48;36.41
9893;BME280;4985;49.092;8.542;2023-06-14T13:03:11;99060.34;;;22.49;36.42
9893;BME280;4985;49.092;8.542;2023-06-14T13:05:38;99045.84;;;22.50;36.34
9893;BME280;4985;49.092;8.542;2023-06-14T13:08:06;99058.22;;;22.51;36.34
9893;BME280;4985;49.092;8.542;2023-06-14T13:10:34;99064.97;;;22.54;36.15
9893;BME280;4985;49.092;8.542;2023-06-14T13:13:00;99067.41;;;22.55;36.03
9893;BME280;4985;49.092;8.542;2023-06-14T13:15:29;99065.53;;;22.56;36.01
9893;BME280;4985;49.092;8.542;2023-06-14T13:17:55;99062.59;;;22.57;35.88
9893;BME280;4985;49.092;8.542;2023-06-14T13:20:22;99064.22;;;22.58;35.81
9893;BME280;4985;49.092;8.542;2023-06-14T13:22:48;99061.53;;;22.58;35.97
9893;BME280;4985;49.092;8.542;2023-06-14T13:25:15;99058.84;;;22.58;35.77
9893;BME280;4985;49.092;8.542;2023-06-14T13:27:42;99054.56;;;22.57;35.81
9893;BME280;4985;49.092;8.542;2023-06-14T13:30:09;99058.03;;;22.58;35.88